Time;durP1;ratioP1;P1;durP2;ratioP2;P2;SDS_P1;SDS_P2;PMS_P1;PMS_P2;Temp;Humidity;BMP_temperature;BMP_pressure;BME280_temperature;BME280_humidity;BME280_pressure;Samples;Min_cycle;Max_cycle;Signal;HPM_P1;HPM_P2
2021/03/22 00:01:52;;;;;;;28.75;12.35;;;3.80;75.40;;;;;;4976742;28;20049;-76
2021/03/22 00:04:17;;;;;;;29.35;13.93;;;3.80;75.60;;;;;;4974722;28;20035;-76
2021/03/22 00:06:43;;;;;;;27.67;12.48;;;3.80;75.50;;;;;;4975359;28;20424;-76
2021/03/22 00:12:59;;;;;;;20.80;12.40;;;3.80;75.20;;;;;;4968198;28;20035;-76
2021/03/22 00:15:26;;;;;;;21.42;12.18;;;3.90;75.20;;;;;;4976251;28;20027;-76
2021/03/22 00:17:56;;;;;;;25.55;13.02;;;3.90;75.10;;;;;;4959119;28;20019;-76
2021/03/22 00:20:25;;;;;;;29.48;13.95;;;3.90;75.10;;;;;;4959104;28;20027;-76
2021/03/22 00:22:51;;;;;;;29.13;13.55;;;3.90;75.00;;;;;;4975959;28;20031;-77
2021/03/22 00:25:18;;;;;;;33.65;12.90;;;3.90;75.00;;;;;;4975012;28;20039;-76
2021/03/22 00:27:44;;;;;;;28.85;12.73;;;4.00;74.90;;;;;;4958421;28;20026;-76
2021/03/22 00:30:16;;;;;;;22.02;12.45;;;4.00;75.10;;;;;;4975001;28;20068;-76
2021/03/22 00:32:41;;;;;;;37.80;14.43;;;3.90;75.00;;;;;;4958734;28;20030;-76
2021/03/22 00:35:07;;;;;;;35.75;13.55;;;3.80;74.90;;;;;;4974973;28;20019;-75
2021/03/22 00:37:33;;;;;;;27.48;13.23;;;3.80;74.80;;;;;;4958602;28;20026;-76
2021/03/22 00:39:58;;;;;;;33.92;13.30;;;3.70;75.00;;;;;;4975649;28;20069;-75
2021/03/22 00:42:24;;;;;;;41.25;13.35;;;3.70;75.10;;;;;;4976156;28;20031;-76
2021/03/22 00:44:50;;;;;;;35.10;13.45;;;3.60;75.20;;;;;;4974571;28;20043;-75
2021/03/22 00:47:17;;;;;;;34.05;13.80;;;3.60;75.50;;;;;;4975964;28;20151;-76
2021/03/22 00:49:42;;;;;;;29.60;13.15;;;3.50;75.80;;;;;;4974654;28;20138;-76
2021/03/22 00:52:11;;;;;;;29.73;13.10;;;3.60;76.00;;;;;;4958485;28;20527;-76
2021/03/22 00:54:39;;;;;;;38.35;12.25;;;3.60;75.80;;;;;;4974550;28;20034;-75
2021/03/22 00:57:05;;;;;;;32.28;12.23;;;3.60;75.40;;;;;;4958310;28;20026;-76
2021/03/22 00:59:31;;;;;;;32.40;12.70;;;3.60;75.30;;;;;;4974435;28;20027;-76
2021/03/22 01:01:57;;;;;;;38.78;13.55;;;3.60;75.40;;;;;;4974253;28;20432;-76
2021/03/22 01:04:23;;;;;;;35.95;12.60;;;3.50;75.60;;;;;;4975620;28;20062;-75
2021/03/22 01:06:48;;;;;;;41.45;13.80;;;3.40;75.60;;;;;;4974237;28;20035;-76
2021/03/22 01:09:23;;;;;;;39.63;13.75;;;3.40;76.70;;;;;;5205458;23;20013;-77
2021/03/22 01:11:49;;;;;;;45.67;14.25;;;3.40;76.00;;;;;;4975307;23;20062;-76
2021/03/22 01:14:15;;;;;;;43.22;13.98;;;3.40;76.20;;;;;;4957351;28;20387;-76
2021/03/22 01:16:41;;;;;;;40.03;13.30;;;3.40;76.00;;;;;;4973996;28;20039;-76
2021/03/22 01:19:29;;;;;;;45.40;13.60;;;3.40;75.80;;;;;;4957758;28;20026;-76
2021/03/22 01:22:08;;;;;;;41.35;12.88;;;3.30;75.90;;;;;;4972910;28;20046;-76
2021/03/22 01:24:33;;;;;;;34.05;13.25;;;3.30;76.00;;;;;;4974915;28;20046;-77
2021/03/22 01:27:03;;;;;;;44.38;13.15;;;3.30;76.10;;;;;;4973944;28;20023;-76
2021/03/22 01:29:38;;;;;;;40.63;12.30;;;3.40;76.00;;;;;;4974983;28;20395;-77
2021/03/22 01:32:07;;;;;;;37.63;13.38;;;3.40;76.20;;;;;;4974852;28;20506;-76
2021/03/22 01:34:33;;;;;;;46.75;13.63;;;3.30;76.00;;;;;;4973765;28;20038;-77
2021/03/22 01:36:59;;;;;;;42.33;13.15;;;3.30;76.20;;;;;;4973603;28;20046;-77
2021/03/22 01:39:29;;;;;;;43.92;12.60;;;3.20;76.50;;;;;;4974781;28;20062;-76
2021/03/22 01:42:06;;;;;;;42.25;12.95;;;3.20;76.50;;;;;;4974822;28;20102;-76
2021/03/22 01:44:41;;;;;;;39.65;13.02;;;3.30;76.70;;;;;;4973475;28;20042;-76
2021/03/22 01:47:20;;;;;;;42.47;12.45;;;3.20;76.60;;;;;;4973544;28;20038;-76
2021/03/22 01:52:25;;;;;;;43.85;12.18;;;3.30;76.50;;;;;;4987046;23;20054;-76
2021/03/22 01:54:53;;;;;;;39.00;13.52;;;3.20;76.60;;;;;;4957084;28;20479;-76
2021/03/22 01:57:43;;;;;;;44.20;13.13;;;3.20;76.70;;;;;;4957088;28;20056;-76
2021/03/22 02:00:08;;;;;;;38.00;12.73;;;3.20;76.70;;;;;;4973060;28;20387;-76
2021/03/22 02:02:35;;;;;;;30.90;10.95;;;3.20;76.90;;;;;;4974513;28;20106;-76
2021/03/22 02:05:01;;;;;;;32.67;12.10;;;3.20;76.80;;;;;;4956874;28;20034;-76
2021/03/22 02:07:30;;;;;;;34.88;11.82;;;3.30;76.70;;;;;;4974448;28;20077;-76
2021/03/22 02:09:55;;;;;;;54.58;13.15;;;3.40;76.50;;;;;;4974141;28;20101;-75
2021/03/22 02:12:21;;;;;;;35.80;10.73;;;3.40;76.50;;;;;;4956895;28;20130;-76
2021/03/22 02:14:49;;;;;;;41.03;11.68;;;3.50;76.40;;;;;;4974360;28;20096;-76
2021/03/22 02:17:25;;;;;;;41.72;11.43;;;3.40;75.90;;;;;;4956835;28;20026;-76
2021/03/22 02:20:14;;;;;;;48.00;12.85;;;3.30;75.90;;;;;;4957038;28;20037;-75
2021/03/22 02:23:07;;;;;;;42.60;12.50;;;3.30;76.00;;;;;;4956869;28;20023;-75
2021/03/22 02:25:37;;;;;;;47.38;11.65;;;3.30;76.00;;;;;;4956705;28;20035;-76
2021/03/22 02:28:40;;;;;;;37.92;11.88;;;3.40;76.10;;;;;;4972514;28;20027;-75
2021/03/22 02:31:31;;;;;;;39.15;11.30;;;3.40;75.80;;;;;;4947649;28;20031;-75
2021/03/22 02:34:25;;;;;;;39.75;12.02;;;3.50;75.60;;;;;;4956716;28;20035;-75
2021/03/22 02:36:57;;;;;;;34.33;10.95;;;3.40;75.30;;;;;;4956588;28;20114;-75
2021/03/22 02:39:25;;;;;;;44.55;13.05;;;3.40;75.40;;;;;;4956899;28;20084;-75
2021/03/22 02:41:58;;;;;;;47.13;13.35;;;3.40;75.30;;;;;;4956801;28;20019;-75
2021/03/22 02:44:25;;;;;;;36.75;11.27;;;3.40;75.20;;;;;;4956460;28;20543;-75
2021/03/22 02:46:56;;;;;;;30.10;11.73;;;3.40;75.20;;;;;;4956726;28;20102;-75
2021/03/22 02:49:23;;;;;;;43.20;11.90;;;3.40;75.20;;;;;;4956703;28;20023;-75
2021/03/22 02:52:19;;;;;;;34.20;11.45;;;3.40;75.30;;;;;;4956674;28;20051;-75
2021/03/22 02:54:57;;;;;;;41.28;10.63;;;3.40;75.50;;;;;;4973909;28;20031;-75
2021/03/22 02:57:26;;;;;;;32.50;10.45;;;3.40;75.40;;;;;;4956811;28;20034;-76
2021/03/22 03:00:00;;;;;;;42.85;12.50;;;3.40;75.20;;;;;;4974006;28;20373;-76
2021/03/22 03:02:30;;;;;;;37.72;11.75;;;3.40;75.20;;;;;;4959501;28;20062;-76
2021/03/22 03:04:56;;;;;;;39.33;10.60;;;3.40;75.20;;;;;;4977875;28;20039;-76
2021/03/22 03:07:27;;;;;;;35.38;10.20;;;3.40;75.30;;;;;;4977602;28;20110;-76
2021/03/22 03:09:52;;;;;;;28.63;10.55;;;3.40;75.20;;;;;;4976516;28;20094;-76
2021/03/22 03:12:20;;;;;;;39.90;11.00;;;3.50;75.30;;;;;;4960422;28;20113;-76
2021/03/22 03:14:50;;;;;;;43.97;12.05;;;3.50;75.00;;;;;;4977693;28;20058;-76
2021/03/22 03:17:17;;;;;;;41.00;11.20;;;3.40;74.90;;;;;;4960459;28;20019;-75
2021/03/22 03:19:42;;;;;;;37.42;10.63;;;3.30;74.90;;;;;;4977537;28;20045;-75
2021/03/22 03:22:10;;;;;;;34.42;10.68;;;3.30;74.80;;;;;;4959865;28;20476;-76
2021/03/22 03:24:39;;;;;;;34.13;10.95;;;3.30;74.80;;;;;;4959762;28;20027;-75
2021/03/22 03:27:09;;;;;;;40.08;11.63;;;3.40;74.70;;;;;;4969654;28;20538;-76
2021/03/22 03:29:36;;;;;;;32.58;10.38;;;3.30;74.40;;;;;;4959974;28;20027;-76
2021/03/22 03:32:03;;;;;;;42.13;12.65;;;3.30;74.60;;;;;;4977336;28;20026;-76
2021/03/22 03:34:28;;;;;;;35.35;11.88;;;3.30;74.70;;;;;;4977244;28;20420;-76
2021/03/22 03:36:54;;;;;;;32.33;9.82;;;3.20;74.70;;;;;;4977272;28;20027;-75
2021/03/22 03:39:20;;;;;;;39.25;10.65;;;3.30;74.80;;;;;;4975938;28;20026;-75
2021/03/22 03:41:46;;;;;;;44.70;10.55;;;3.30;74.60;;;;;;4959843;28;20039;-75
2021/03/22 03:44:13;;;;;;;50.85;11.13;;;3.20;74.50;;;;;;4959567;28;20038;-75
2021/03/22 03:46:39;;;;;;;33.50;10.23;;;3.20;74.70;;;;;;4959699;28;20058;-75
2021/03/22 03:49:05;;;;;;;38.97;10.20;;;3.20;74.90;;;;;;4975790;28;20073;-75
2021/03/22 03:51:32;;;;;;;35.50;11.43;;;3.20;74.80;;;;;;4975537;28;20047;-75
2021/03/22 03:53:59;;;;;;;37.45;10.77;;;3.20;74.60;;;;;;4976889;28;20039;-75
2021/03/22 03:56:26;;;;;;;40.75;10.60;;;3.10;75.10;;;;;;4959406;28;20031;-75
2021/03/22 03:58:53;;;;;;;26.75;9.63;;;3.10;75.40;;;;;;4976826;28;20070;-75
2021/03/22 04:01:18;;;;;;;47.17;11.75;;;3.20;75.50;;;;;;4975519;28;20054;-75
2021/03/22 04:03:44;;;;;;;32.92;10.10;;;3.20;75.20;;;;;;4976713;28;20069;-75
2021/03/22 04:06:16;;;;;;;28.98;9.48;;;3.20;75.00;;;;;;4975249;28;20066;-75
2021/03/22 04:08:46;;;;;;;44.00;11.05;;;3.30;75.10;;;;;;4975465;28;20041;-75
2021/03/22 04:11:16;;;;;;;33.00;8.88;;;3.30;74.90;;;;;;4959089;28;20117;-75
2021/03/22 04:13:42;;;;;;;44.42;11.52;;;3.40;74.70;;;;;;4974447;28;20384;-75
2021/03/22 04:16:10;;;;;;;40.95;10.30;;;3.30;75.40;;;;;;4975129;28;20041;-75
2021/03/22 04:18:38;;;;;;;34.03;9.88;;;3.30;74.70;;;;;;4975230;28;20054;-75
2021/03/22 04:21:06;;;;;;;34.42;10.05;;;3.30;74.70;;;;;;4975119;28;20034;-75
2021/03/22 04:23:32;;;;;;;33.08;10.05;;;3.40;74.70;;;;;;4958995;28;20480;-76
2021/03/22 04:25:58;;;;;;;34.05;10.38;;;3.40;75.00;;;;;;4976130;28;20049;-74
2021/03/22 04:28:24;;;;;;;36.92;10.93;;;3.40;74.40;;;;;;4959019;28;20026;-74
2021/03/22 04:30:49;;;;;;;33.08;9.43;;;3.30;74.20;;;;;;4975042;28;20026;-73
2021/03/22 04:33:15;;;;;;;25.83;8.77;;;3.30;74.40;;;;;;4975169;28;20031;-75
2021/03/22 04:35:41;;;;;;;37.28;10.35;;;3.30;74.40;;;;;;4974904;28;20031;-74
2021/03/22 04:38:06;;;;;;;34.42;9.80;;;3.30;75.10;;;;;;4975016;28;20022;-77
2021/03/22 04:40:32;;;;;;;43.80;10.85;;;3.30;74.20;;;;;;4958816;28;20034;-74
2021/03/22 04:42:58;;;;;;;37.83;9.55;;;3.30;74.10;;;;;;4958399;28;20183;-75
2021/03/22 04:45:27;;;;;;;28.10;8.80;;;3.30;74.20;;;;;;4974756;28;20056;-75
2021/03/22 04:47:53;;;;;;;43.40;11.00;;;3.40;74.20;;;;;;4975931;28;20019;-75
2021/03/22 04:50:21;;;;;;;42.83;11.73;;;3.30;74.20;;;;;;4954577;28;20049;-77
2021/03/22 04:52:47;;;;;;;38.15;10.80;;;3.30;74.40;;;;;;4955169;29;20023;-74
2021/03/22 04:55:13;;;;;;;38.45;11.02;;;3.20;74.50;;;;;;4939058;29;20050;-74
2021/03/22 04:57:39;;;;;;;34.05;9.40;;;3.10;74.90;;;;;;4955115;29;20058;-75
2021/03/22 05:00:11;;;;;;;37.13;9.77;;;3.00;75.20;;;;;;4955075;29;20427;-76
2021/03/22 05:02:36;;;;;;;46.95;9.93;;;3.00;75.50;;;;;;4956210;29;20392;-75
2021/03/22 05:05:03;;;;;;;43.05;10.52;;;3.00;75.90;;;;;;4956190;29;20035;-74
2021/03/22 05:07:29;;;;;;;39.17;9.95;;;2.90;76.10;;;;;;4956317;29;20029;-74
2021/03/22 05:09:55;;;;;;;43.42;10.40;;;2.80;76.40;;;;;;4938884;29;20122;-76
2021/03/22 05:12:20;;;;;;;34.67;9.73;;;2.80;76.50;;;;;;4954780;28;20484;-74
2021/03/22 05:14:46;;;;;;;39.97;10.68;;;2.90;76.70;;;;;;4938804;29;20043;-74
2021/03/22 05:17:12;;;;;;;38.28;9.50;;;2.90;76.70;;;;;;4954765;29;20027;-75
2021/03/22 05:19:38;;;;;;;35.85;10.05;;;2.90;76.60;;;;;;4954995;29;20508;-76
2021/03/22 05:22:04;;;;;;;31.60;10.32;;;2.90;76.50;;;;;;4938726;29;20169;-76
2021/03/22 05:24:29;;;;;;;41.47;11.23;;;2.90;76.50;;;;;;4953712;28;20030;-75
2021/03/22 05:26:56;;;;;;;33.85;9.05;;;2.80;76.50;;;;;;4954617;28;20027;-76
2021/03/22 05:29:24;;;;;;;40.72;10.80;;;2.90;76.70;;;;;;4955953;29;20477;-76
2021/03/22 05:31:50;;;;;;;41.28;10.32;;;3.00;76.60;;;;;;4954445;29;20377;-76
2021/03/22 05:34:17;;;;;;;42.70;11.13;;;3.00;76.40;;;;;;4954417;29;20362;-75
2021/03/22 05:36:43;;;;;;;39.67;10.13;;;3.10;76.30;;;;;;4954347;29;20089;-76
2021/03/22 05:39:08;;;;;;;42.88;11.13;;;3.00;76.00;;;;;;4938372;29;20023;-76
2021/03/22 05:42:23;;;;;;;39.28;10.18;;;3.10;76.10;;;;;;4938408;29;20410;-75
2021/03/22 05:45:11;;;;;;;39.95;10.07;;;3.10;75.90;;;;;;4929083;29;20035;-76
2021/03/22 05:48:25;;;;;;;38.90;9.90;;;3.10;75.70;;;;;;4935036;29;20077;-76
2021/03/22 05:51:29;;;;;;;36.22;9.73;;;3.00;75.90;;;;;;4963324;28;20042;-75
2021/03/22 05:54:22;;;;;;;35.88;9.25;;;3.10;76.30;;;;;;4956953;28;20061;-75
2021/03/22 05:57:04;;;;;;;45.75;10.77;;;3.00;76.30;;;;;;4957320;28;20027;-76
2021/03/22 05:59:45;;;;;;;41.95;9.27;;;2.90;76.60;;;;;;4957158;28;20031;-76
2021/03/22 06:02:35;;;;;;;46.20;10.50;;;2.90;77.00;;;;;;4957071;28;20027;-78
2021/03/22 06:05:09;;;;;;;37.75;10.50;;;2.80;77.20;;;;;;4956975;28;20042;-77
2021/03/22 06:07:43;;;;;;;46.90;10.57;;;2.80;77.50;;;;;;4974431;28;20101;-75
2021/03/22 06:10:16;;;;;;;35.85;9.85;;;2.80;77.50;;;;;;4949740;28;20053;-78
2021/03/22 06:12:51;;;;;;;44.47;10.57;;;2.90;77.50;;;;;;4974324;28;20027;-75
2021/03/22 06:15:37;;;;;;;55.60;11.88;;;2.90;77.60;;;;;;4973154;28;20034;-74
2021/03/22 06:18:34;;;;;;;38.30;11.00;;;2.90;77.60;;;;;;4956843;28;20081;-75
2021/03/22 06:21:10;;;;;;;49.60;12.20;;;2.90;77.50;;;;;;4966174;28;20138;-74
2021/03/22 06:23:38;;;;;;;60.53;11.63;;;2.90;77.50;;;;;;4956801;28;20018;-74
2021/03/22 06:26:18;;;;;;;48.38;10.63;;;2.70;77.90;;;;;;4957087;28;20057;-75
2021/03/22 06:28:47;;;;;;;39.38;10.50;;;2.70;78.10;;;;;;4973882;28;20027;-75
2021/03/22 06:31:17;;;;;;;42.08;11.15;;;2.60;78.30;;;;;;4973759;28;20038;-75
2021/03/22 06:33:48;;;;;;;39.55;11.30;;;2.70;78.40;;;;;;4973113;28;20027;-76
2021/03/22 06:36:23;;;;;;;55.33;11.93;;;2.70;78.50;;;;;;4974126;28;20023;-75
2021/03/22 06:38:55;;;;;;;42.70;10.43;;;2.80;78.30;;;;;;4956501;28;20088;-75
2021/03/22 06:41:45;;;;;;;31.05;10.45;;;2.80;78.50;;;;;;4956559;28;20081;-75
2021/03/22 06:44:16;;;;;;;34.05;8.75;;;2.90;77.90;;;;;;4951468;28;20093;-76
2021/03/22 06:46:58;;;;;;;34.97;8.95;;;3.00;77.50;;;;;;4973821;28;20034;-75
2021/03/22 06:49:28;;;;;;;43.88;10.25;;;3.00;77.10;;;;;;4956633;28;20571;-76
2021/03/22 06:52:07;;;;;;;44.58;9.98;;;3.10;76.90;;;;;;4956616;28;20055;-76
2021/03/22 06:54:40;;;;;;;49.67;11.90;;;3.10;76.70;;;;;;4956610;28;20030;-76
2021/03/22 06:57:15;;;;;;;35.15;9.57;;;3.10;76.40;;;;;;4956528;28;20377;-75
2021/03/22 07:00:06;;;;;;;41.70;10.90;;;3.20;76.90;;;;;;4973687;28;20027;-75
2021/03/22 07:02:48;;;;;;;38.33;8.63;;;3.20;76.20;;;;;;4961979;23;20052;-75
2021/03/22 07:05:21;;;;;;;45.92;9.82;;;3.30;76.20;;;;;;4914956;29;20107;-75
2021/03/22 07:08:01;;;;;;;35.08;10.07;;;3.20;75.60;;;;;;4916282;29;20036;-74
2021/03/22 07:10:37;;;;;;;30.25;9.15;;;3.30;75.50;;;;;;4916500;29;20029;-75
2021/03/22 07:13:25;;;;;;;49.78;13.32;;;3.30;75.40;;;;;;4914914;29;20039;-74
2021/03/22 07:16:12;;;;;;;60.65;15.68;;;3.40;75.20;;;;;;4930861;29;20024;-76
2021/03/22 07:18:38;;;;;;;43.08;11.15;;;3.30;75.10;;;;;;4914959;29;20446;-75
2021/03/22 07:21:12;;;;;;;44.58;11.55;;;3.30;75.10;;;;;;4914821;29;20039;-75
2021/03/22 07:23:46;;;;;;;28.00;8.65;;;3.40;74.80;;;;;;4916031;29;20028;-77
2021/03/22 07:26:20;;;;;;;33.15;8.57;;;3.40;74.20;;;;;;4915991;29;20079;-77
2021/03/22 07:29:14;;;;;;;39.40;8.75;;;3.50;74.10;;;;;;4916032;29;20056;-77
2021/03/22 07:32:08;;;;;;;33.90;8.18;;;3.40;73.50;;;;;;4930540;29;20447;-76
2021/03/22 07:34:57;;;;;;;33.35;8.23;;;3.50;73.60;;;;;;4916122;29;20043;-75
2021/03/22 07:37:56;;;;;;;33.50;7.72;;;3.50;73.40;;;;;;4930674;29;20020;-76
2021/03/22 07:40:41;;;;;;;33.58;8.73;;;3.50;73.10;;;;;;4930609;29;20021;-75
2021/03/22 07:43:39;;;;;;;39.85;7.93;;;3.60;72.80;;;;;;4915932;29;20107;-76
2021/03/22 07:46:10;;;;;;;29.58;7.72;;;3.70;72.70;;;;;;4898941;29;20147;-75
2021/03/22 07:49:10;;;;;;;34.05;7.93;;;3.70;72.50;;;;;;4933455;29;20062;-76
2021/03/22 07:52:05;;;;;;;30.42;8.02;;;3.80;72.50;;;;;;4918066;29;20389;-74
2021/03/22 07:54:49;;;;;;;26.45;8.57;;;3.70;71.20;;;;;;4919362;29;20489;-75
2021/03/22 07:57:38;;;;;;;29.92;7.57;;;3.70;72.20;;;;;;4919063;29;20039;-75
2021/03/22 08:00:13;;;;;;;30.80;7.88;;;3.80;71.60;;;;;;4919373;29;20054;-74
2021/03/22 08:02:49;;;;;;;;;;;3.80;71.50;;;;;;4919534;29;20128;-75
2021/03/22 08:05:44;;;;;;;;;;;3.80;71.30;;;;;;4934275;29;19915;-75
2021/03/22 08:08:45;;;;;;;40.97;7.68;;;3.70;71.80;;;;;;4900552;29;19907;-74
2021/03/22 08:11:20;;;;;;;43.22;8.88;;;3.50;72.10;;;;;;4918798;29;20020;-76
2021/03/22 08:14:16;;;;;;;41.53;7.32;;;3.50;72.40;;;;;;4919051;29;20024;-77
2021/03/22 08:16:42;;;;;;;;;;;3.40;72.50;;;;;;4919301;29;20032;-75
2021/03/22 08:19:14;;;;;;;;;;;3.40;72.70;;;;;;4919366;29;19910;-79
2021/03/22 08:22:05;;;;;;;34.67;8.45;;;3.30;73.10;;;;;;4933300;29;19918;-77
2021/03/22 08:25:08;;;;;;;36.30;6.95;;;3.30;73.40;;;;;;4933355;29;20040;-76
2021/03/22 08:27:37;;;;;;;27.38;7.70;;;3.40;73.00;;;;;;4933563;29;20087;-76
2021/03/22 08:30:21;;;;;;;37.53;8.85;;;3.50;72.80;;;;;;4917344;29;20385;-76
2021/03/22 08:35:44;;;;;;;42.65;9.57;;;3.60;72.20;;;;;;5326349;23;20066;-76
2021/03/22 08:38:34;;;;;;;37.15;7.68;;;3.50;71.90;;;;;;4955177;28;20396;-77
2021/03/22 08:41:00;;;;;;;34.17;7.25;;;3.40;71.90;;;;;;4953252;29;20043;-75
2021/03/22 08:43:58;;;;;;;36.28;8.73;;;3.40;71.80;;;;;;4956515;29;20046;-78
2021/03/22 08:46:50;;;;;;;52.40;10.23;;;3.40;71.90;;;;;;4938924;29;20568;-72
2021/03/22 08:49:31;;;;;;;31.10;8.25;;;3.60;75.20;;;;;;4939213;29;20038;-75
2021/03/22 08:51:58;;;;;;;39.50;8.93;;;4.30;82.40;;;;;;4956212;29;20058;-79
2021/03/22 08:54:32;;;;;;;33.55;8.73;;;5.10;78.40;;;;;;4956403;29;20107;-74
2021/03/22 08:57:19;;;;;;;41.63;7.50;;;5.50;73.00;;;;;;4955039;29;20113;-78
2021/03/22 08:59:45;;;;;;;30.33;7.35;;;6.10;69.00;;;;;;4970747;28;20118;-74
2021/03/22 09:02:24;;;;;;;32.42;7.38;;;6.50;64.80;;;;;;4938720;29;20110;-76
2021/03/22 09:04:51;;;;;;;34.70;7.82;;;6.40;61.20;;;;;;4954568;29;20039;-77
2021/03/22 09:07:16;;;;;;;23.45;6.65;;;6.10;60.20;;;;;;4938774;29;20428;-76
2021/03/22 09:09:44;;;;;;;30.30;7.43;;;5.80;60.50;;;;;;4954593;29;20082;-77
2021/03/22 09:12:36;;;;;;;34.47;8.10;;;5.50;61.30;;;;;;4954841;29;20037;-76
2021/03/22 09:15:31;;;;;;;37.80;8.32;;;5.10;62.80;;;;;;4970756;28;20093;-78
2021/03/22 09:18:03;;;;;;;36.60;9.32;;;4.80;64.30;;;;;;4938217;29;20035;-77
2021/03/22 09:20:54;;;;;;;36.97;7.07;;;4.60;65.40;;;;;;4954524;29;20043;-76
2021/03/22 09:23:29;;;;;;;35.30;7.30;;;4.50;66.20;;;;;;4932180;29;20050;-76
2021/03/22 09:25:58;;;;;;;26.40;5.97;;;4.30;66.80;;;;;;4954335;29;20055;-78
2021/03/22 09:28:24;;;;;;;36.05;7.50;;;4.30;67.10;;;;;;4970606;28;20031;-77
2021/03/22 09:31:26;;;;;;;28.23;6.43;;;4.20;66.90;;;;;;4954039;29;20396;-77
2021/03/22 09:33:56;;;;;;;34.70;6.43;;;4.20;67.30;;;;;;4970531;28;20106;-76
2021/03/22 09:36:40;;;;;;;36.20;7.70;;;4.00;68.20;;;;;;4985916;28;20512;-76
2021/03/22 09:39:18;;;;;;;31.30;7.85;;;3.90;69.60;;;;;;4957113;28;20070;-76
2021/03/22 09:42:00;;;;;;;33.95;7.22;;;3.80;70.70;;;;;;4974550;28;20097;-77
2021/03/22 09:44:37;;;;;;;36.15;7.80;;;3.70;71.80;;;;;;4974466;28;20045;-78
2021/03/22 09:47:18;;;;;;;26.85;7.00;;;3.70;72.70;;;;;;4974458;28;20019;-76
2021/03/22 09:50:04;;;;;;;33.50;7.82;;;3.70;72.60;;;;;;4974469;28;20105;-76
2021/03/22 09:52:37;;;;;;;36.15;7.28;;;3.60;72.70;;;;;;4973208;28;20049;-76
2021/03/22 09:55:26;;;;;;;21.95;5.63;;;3.60;72.90;;;;;;4974552;28;20095;-76
2021/03/22 09:57:53;;;;;;;34.50;6.60;;;3.60;72.70;;;;;;4928892;28;20035;-77
2021/03/22 10:00:25;;;;;;;31.83;7.65;;;3.60;72.30;;;;;;4974341;28;20030;-78
2021/03/22 10:02:59;;;;;;;27.80;7.05;;;3.60;72.70;;;;;;4974336;28;20051;-76
2021/03/22 10:05:45;;;;;;;24.20;6.30;;;3.70;72.50;;;;;;4972887;28;20038;-77
2021/03/22 10:08:11;;;;;;;32.20;6.90;;;3.90;72.00;;;;;;4972882;28;20019;-78
2021/03/22 10:10:41;;;;;;;28.40;5.63;;;4.00;71.70;;;;;;4973775;28;20038;-78
2021/03/22 10:13:17;;;;;;;20.42;5.90;;;4.10;70.70;;;;;;4972913;28;20026;-79
2021/03/22 10:15:53;;;;;;;17.10;4.63;;;4.20;70.10;;;;;;4972778;28;20045;-80
2021/03/22 10:18:21;;;;;;;14.48;3.10;;;4.30;67.90;;;;;;4973094;28;20074;-79
2021/03/22 10:20:51;;;;;;;19.08;3.35;;;4.20;66.00;;;;;;4974075;28;20567;-79
2021/03/22 10:23:46;;;;;;;8.10;2.63;;;4.10;65.40;;;;;;4973131;28;20383;-79
2021/03/22 10:26:36;;;;;;;10.13;2.25;;;4.10;64.80;;;;;;4935861;28;20117;-79
2021/03/22 10:29:20;;;;;;;18.85;3.45;;;4.20;65.00;;;;;;4956100;28;20042;-79
2021/03/22 10:32:09;;;;;;;18.00;3.33;;;4.20;64.60;;;;;;4972655;28;20050;-79
2021/03/22 10:34:55;;;;;;;16.80;3.47;;;4.30;64.70;;;;;;4972700;28;20050;-78
2021/03/22 10:37:29;;;;;;;18.15;3.85;;;4.40;64.40;;;;;;4972916;28;20038;-77
2021/03/22 10:40:15;;;;;;;17.48;3.83;;;4.50;64.00;;;;;;4972713;28;20027;-79
2021/03/22 10:42:41;;;;;;;;;;;4.60;63.80;;;;;;4972991;28;20030;-79
2021/03/22 10:45:16;;;;;;;11.30;2.92;;;4.70;63.80;;;;;;4988753;28;20367;-79
2021/03/22 10:47:42;;;;;;;10.00;3.10;;;4.80;63.70;;;;;;4972734;28;20054;-79
2021/03/22 10:50:14;;;;;;;17.27;3.15;;;4.70;63.00;;;;;;4956511;28;20066;-79
2021/03/22 10:52:39;;;;;;;10.18;2.45;;;4.60;62.40;;;;;;4972619;28;20015;-80
2021/03/22 10:55:05;;;;;;;18.63;2.78;;;4.60;62.50;;;;;;4956277;28;20037;-79
2021/03/22 10:57:39;;;;;;;16.52;3.28;;;4.80;62.40;;;;;;4956657;28;20027;-78
2021/03/22 11:00:29;;;;;;;19.20;2.72;;;5.00;61.50;;;;;;4972272;28;20026;-80
2021/03/22 11:02:57;;;;;;;13.32;2.83;;;4.90;60.20;;;;;;4972475;28;20491;-79
2021/03/22 11:05:31;;;;;;;16.98;2.97;;;4.90;60.50;;;;;;4971905;28;20034;-76
2021/03/22 11:08:03;;;;;;;20.20;3.35;;;5.00;60.10;;;;;;4971757;28;20571;-77
2021/03/22 11:10:29;;;;;;;15.50;3.53;;;5.10;59.90;;;;;;4971980;28;20070;-77
2021/03/22 11:12:55;;;;;;;10.65;3.25;;;5.10;59.80;;;;;;4972005;28;20062;-77
2021/03/22 11:15:36;;;;;;;11.90;2.95;;;5.20;60.30;;;;;;4973644;28;20137;-77
2021/03/22 11:18:19;;;;;;;9.82;3.17;;;5.50;60.80;;;;;;4955435;28;20100;-78
2021/03/22 11:20:47;;;;;;;9.57;2.42;;;5.70;58.40;;;;;;4969535;28;20034;-76
2021/03/22 11:23:18;;;;;;;11.40;2.35;;;5.80;58.40;;;;;;4995064;28;20361;-77
2021/03/22 11:25:44;;;;;;;13.48;3.08;;;5.90;57.80;;;;;;4996121;28;20041;-78
2021/03/22 11:28:13;;;;;;;7.75;2.70;;;5.80;56.90;;;;;;4996628;28;20018;-77
2021/03/22 11:30:41;;;;;;;13.18;2.88;;;5.80;57.00;;;;;;4994736;28;20022;-76
2021/03/22 11:33:29;;;;;;;11.98;3.28;;;5.70;57.20;;;;;;4995902;28;20030;-75
2021/03/22 11:36:21;;;;;;;10.10;3.47;;;5.60;57.20;;;;;;5011037;28;20049;-76
2021/03/22 11:38:51;;;;;;;7.43;2.63;;;5.60;57.70;;;;;;4998124;28;20022;-77
2021/03/22 11:41:26;;;;;;;7.63;2.13;;;5.50;58.00;;;;;;5016200;28;20022;-77
2021/03/22 11:44:02;;;;;;;10.52;2.70;;;5.50;58.20;;;;;;5015672;28;20022;-77
2021/03/22 11:46:28;;;;;;;14.32;2.53;;;5.50;58.30;;;;;;5015716;28;20026;-77
2021/03/22 11:48:53;;;;;;;12.27;2.67;;;5.30;58.40;;;;;;5015499;28;20423;-77
2021/03/22 11:51:19;;;;;;;10.98;2.40;;;5.30;58.60;;;;;;5015684;28;20543;-77
2021/03/22 11:54:01;;;;;;;7.82;2.50;;;5.20;59.10;;;;;;4997771;28;20026;-76
2021/03/22 11:56:29;;;;;;;8.38;2.20;;;5.30;59.80;;;;;;5015749;28;20025;-77
2021/03/22 11:59:16;;;;;;;14.07;3.08;;;5.20;60.10;;;;;;5015341;28;20020;-77
2021/03/22 12:01:42;;;;;;;6.53;2.05;;;5.30;60.20;;;;;;5015609;28;20018;-76
2021/03/22 12:04:07;;;;;;;10.45;2.40;;;5.30;60.40;;;;;;5015431;28;20114;-77
2021/03/22 12:06:48;;;;;;;7.80;1.95;;;5.40;60.70;;;;;;5015376;28;20096;-77
2021/03/22 12:09:15;;;;;;;5.90;1.85;;;5.50;60.40;;;;;;5015235;28;20029;-77
2021/03/22 12:11:41;;;;;;;12.68;2.83;;;5.70;59.80;;;;;;5015037;28;20030;-78
2021/03/22 12:14:06;;;;;;;8.82;2.50;;;5.80;59.20;;;;;;5013975;28;20382;-78
2021/03/22 12:16:34;;;;;;;6.70;1.92;;;5.70;58.00;;;;;;5015224;28;20030;-76
2021/03/22 12:19:09;;;;;;;11.43;2.10;;;5.80;58.50;;;;;;5015043;28;20049;-78
2021/03/22 12:21:38;;;;;;;10.57;1.67;;;5.90;57.60;;;;;;5015177;28;20049;-76
2021/03/22 12:24:04;;;;;;;7.82;1.75;;;5.90;56.50;;;;;;5014904;28;20382;-76
2021/03/22 12:26:31;;;;;;;8.80;1.90;;;5.80;56.00;;;;;;5014948;28;20095;-76
2021/03/22 12:28:57;;;;;;;12.43;4.18;;;5.90;56.20;;;;;;5015058;28;20100;-76
2021/03/22 12:31:30;;;;;;;8.18;2.60;;;5.70;55.70;;;;;;5014957;28;20414;-78
2021/03/22 12:33:58;;;;;;;13.50;2.10;;;5.70;55.80;;;;;;5014516;28;20026;-75
2021/03/22 12:36:24;;;;;;;9.32;2.15;;;5.80;56.60;;;;;;5014812;28;20120;-77
2021/03/22 12:38:49;;;;;;;6.68;2.05;;;6.30;68.50;;;;;;5014673;28;20374;-77
2021/03/22 12:41:24;;;;;;;10.13;1.98;;;6.60;66.70;;;;;;5013639;28;20030;-78
2021/03/22 12:43:50;;;;;;;7.30;1.50;;;7.00;65.30;;;;;;5014828;28;20026;-77
2021/03/22 12:46:16;;;;;;;6.70;1.88;;;6.80;58.60;;;;;;5014587;28;20038;-77
2021/03/22 12:48:41;;;;;;;6.25;1.60;;;6.60;55.80;;;;;;5014766;28;20026;-76
2021/03/22 12:51:07;;;;;;;6.15;1.48;;;6.20;54.20;;;;;;5014552;28;20034;-76
2021/03/22 12:53:32;;;;;;;7.70;2.00;;;5.70;54.80;;;;;;5014561;28;20523;-77
2021/03/22 12:56:00;;;;;;;5.65;1.48;;;5.30;56.00;;;;;;5014447;28;20033;-77
2021/03/22 12:58:26;;;;;;;6.47;1.95;;;5.00;57.00;;;;;;5014413;28;20485;-75
2021/03/22 13:00:54;;;;;;;13.10;2.50;;;4.80;58.00;;;;;;5014293;28;20034;-76
2021/03/22 13:03:26;;;;;;;7.22;2.05;;;4.80;58.80;;;;;;4996631;28;20021;-76
2021/03/22 13:05:53;;;;;;;12.63;2.38;;;4.80;59.10;;;;;;5014089;28;20491;-76
2021/03/22 13:08:20;;;;;;;8.15;1.60;;;4.90;59.30;;;;;;5014302;28;20044;-76
2021/03/22 13:10:45;;;;;;;8.23;1.48;;;4.90;59.60;;;;;;5014025;28;20030;-76
2021/03/22 13:13:11;;;;;;;6.97;1.67;;;5.10;59.70;;;;;;5000422;28;20029;-76
2021/03/22 13:15:52;;;;;;;7.88;2.78;;;5.20;59.60;;;;;;4993048;28;20069;-75
2021/03/22 13:18:27;;;;;;;6.53;2.25;;;5.20;59.40;;;;;;4994594;28;20026;-75
2021/03/22 13:20:55;;;;;;;;;;;5.30;59.60;;;;;;4994843;28;20062;-77
2021/03/22 13:23:22;;;;;;;7.35;2.13;;;5.40;59.40;;;;;;4994488;28;19910;-76
2021/03/22 13:25:48;;;;;;;8.48;1.80;;;5.50;59.20;;;;;;4994432;28;20049;-75
2021/03/22 13:28:18;;;;;;;10.27;2.47;;;5.50;58.70;;;;;;4990636;28;20019;-76